Pagrindinis puslapis
METAR-TAF:

METAR-TAF

Oro uostai :

Abu Dabis, Jungtiniai Arabų Emyratai

platuma: 24-26N, ilguma: 054-39E, Aukštis: 16 m

Dabartinis oras

Ataskaita buvo paskelbta 1 valandą ir 1 minutes, ne 23:00 UTC
Ramus vėjas
Temperatūra 23°C
Drėgmė 73%
Slėgis 1009 hPa
Matomumas 10 km arba daugiau
nėra debesų žemiau 1500 m ir nėra kamuolinių lietaus debesų

METAR: OMAA 072300Z 00000KT CAVOK 23/18 Q1009 NOSIG

Laikas: 04:01 (00:01 UTC)

Prognozė

Ataskaita buvo paskelbta 1 valandą ir 1 minutes, ne 23:00 UTC
Prognozė galioja nuo 08 metu 00 UTC su 09 metu 06 UTC
Vėjas 2 kt nuo kintamojo kryptimis
Matomumas: 8000 m
Tikimybė 30%
nuo 08 metu 01 UTC su 08 metu 04 UTC
Matomumas: 4000 m
migla
Tapsmas
nuo 08 metu 08 UTC su 08 metu 10 UTC
Vėjas 12 kt iš Šiaurės/Šiaurės Vakarų
Tapsmas
nuo 08 metu 17 UTC su 08 metu 19 UTC
Vėjas 5 kt iš Rytų/Pietryčių

TAF: OMAA 072300Z 0800/0906 VRB02KT 8000 NSC PROB30 0801/0804 4000 HZ BECMG 0808/0810 34012KT BECMG 0817/0819 12005KT

Orai ataskaitas ir orų prognozės (METAR, TAF).

turimą stotys yra geltonos ir raudonos taškus žemėlapyje.

Perkelti pele per norėdami pamatyti stoties vardą.

Tada spustelėkite, norėdami matyti oro stebėjimo ir prognozės.

Norėdami pakeisti žemėlapį: spustelėkite ant žalios mygtukų su juodo kryžiaus žemyn,; žalią mygtuką su brūkšneliu, jei norite nutolinti; arba žalių rodyklių gretimoms žemėlapius.


METAR-TAF: